Time;durP1;ratioP1;P1;durP2;ratioP2;P2;SDS_P1;SDS_P2;PMS_P1;PMS_P2;Temp;Humidity;BMP_temperature;BMP_pressure;BME280_temperature;BME280_humidity;BME280_pressure;Samples;Min_cycle;Max_cycle;Signal;HPM_P1;HPM_P2
2022/03/11 00:00:44;;;;;;;23.30;13.43;;;5.20;99.90;;;;;;5035814;28;20075;-73
2022/03/11 00:03:10;;;;;;;18.83;13.07;;;5.10;99.90;;;;;;5036155;28;20487;-73
2022/03/11 00:05:37;;;;;;;20.17;13.73;;;5.10;99.90;;;;;;5036751;28;20071;-72
2022/03/11 00:08:04;;;;;;;20.65;13.40;;;5.10;99.90;;;;;;5073804;28;20044;-73
2022/03/11 00:10:30;;;;;;;20.00;13.93;;;5.10;99.90;;;;;;5057106;28;20042;-72
2022/03/11 00:12:57;;;;;;;24.30;13.50;;;5.00;99.90;;;;;;5071959;28;20072;-73
2022/03/11 00:15:23;;;;;;;21.42;13.57;;;5.10;99.90;;;;;;5073690;28;20049;-72
2022/03/11 00:17:48;;;;;;;23.73;13.77;;;5.00;99.90;;;;;;5073698;28;20032;-73
2022/03/11 00:20:19;;;;;;;19.85;13.77;;;5.00;99.90;;;;;;5072705;28;20044;-72
2022/03/11 00:22:49;;;;;;;21.55;13.32;;;4.90;99.90;;;;;;5056333;28;20068;-71
2022/03/11 00:25:16;;;;;;;19.65;12.88;;;4.90;99.90;;;;;;5073520;28;20037;-73
2022/03/11 00:27:42;;;;;;;19.25;12.82;;;4.90;99.90;;;;;;5071615;28;20044;-72
2022/03/11 00:30:09;;;;;;;18.88;12.95;;;4.80;99.90;;;;;;5071912;28;20040;-73
2022/03/11 00:32:35;;;;;;;20.10;12.73;;;4.80;99.90;;;;;;5055371;28;20109;-73
2022/03/11 00:35:00;;;;;;;24.95;12.25;;;4.80;99.90;;;;;;5056479;28;20044;-71
2022/03/11 00:37:26;;;;;;;19.05;12.45;;;4.80;99.90;;;;;;5072692;28;20128;-73
2022/03/11 00:39:52;;;;;;;18.92;12.43;;;4.70;99.90;;;;;;5036550;28;20105;-72
2022/03/11 00:42:18;;;;;;;20.20;12.77;;;4.70;99.90;;;;;;5052190;28;20136;-73
2022/03/11 00:44:44;;;;;;;17.60;12.55;;;4.70;99.90;;;;;;5036153;28;20037;-72
2022/03/11 00:47:10;;;;;;;18.67;12.10;;;4.60;99.90;;;;;;5086191;28;20068;-71
2022/03/11 00:49:37;;;;;;;18.63;12.25;;;4.60;99.90;;;;;;5051810;28;20100;-73
2022/03/11 00:52:04;;;;;;;18.75;12.52;;;4.60;99.90;;;;;;5035868;28;20056;-71
2022/03/11 00:54:30;;;;;;;19.85;12.48;;;4.60;99.90;;;;;;5067407;28;20538;-72
2022/03/11 00:56:56;;;;;;;19.27;11.88;;;4.60;99.90;;;;;;5035503;28;20045;-73
2022/03/11 00:59:22;;;;;;;18.50;11.68;;;4.50;99.90;;;;;;5052670;28;20143;-73
2022/03/11 01:01:48;;;;;;;17.05;11.13;;;4.50;99.90;;;;;;5078705;28;20097;-73
2022/03/11 01:04:13;;;;;;;20.25;11.90;;;4.50;99.90;;;;;;5073973;28;20037;-73
2022/03/11 01:06:40;;;;;;;21.02;12.50;;;4.40;99.90;;;;;;5084329;28;20065;-72
2022/03/11 01:09:06;;;;;;;17.85;11.30;;;4.40;99.90;;;;;;5085028;28;20040;-71
2022/03/11 01:11:32;;;;;;;18.75;11.63;;;4.40;99.90;;;;;;5051214;28;20046;-72
2022/03/11 01:13:58;;;;;;;19.52;11.57;;;4.40;99.90;;;;;;5084758;28;20045;-71
2022/03/11 01:16:24;;;;;;;18.23;11.10;;;4.30;99.90;;;;;;5050985;28;20083;-72
2022/03/11 01:18:50;;;;;;;17.15;11.45;;;4.30;99.90;;;;;;5034866;28;20074;-72
2022/03/11 01:21:16;;;;;;;19.20;11.13;;;4.30;99.90;;;;;;5051662;28;20044;-71
2022/03/11 01:23:42;;;;;;;18.88;11.05;;;4.20;99.90;;;;;;5034600;28;20106;-72
2022/03/11 01:26:10;;;;;;;15.00;10.70;;;4.20;99.90;;;;;;5034755;28;20095;-72
2022/03/11 01:28:36;;;;;;;18.95;10.70;;;4.20;99.90;;;;;;5084305;28;20041;-73
2022/03/11 01:31:02;;;;;;;17.75;11.35;;;4.10;99.90;;;;;;5051570;28;20044;-73
2022/03/11 01:33:28;;;;;;;18.83;11.63;;;4.10;99.90;;;;;;5084304;28;20046;-73
2022/03/11 01:35:53;;;;;;;18.15;11.32;;;4.10;99.90;;;;;;5084339;28;20467;-72
2022/03/11 01:38:19;;;;;;;19.52;10.90;;;4.10;99.90;;;;;;5033736;28;20041;-72
2022/03/11 01:40:45;;;;;;;16.20;10.98;;;4.10;99.90;;;;;;5050526;28;20117;-73
2022/03/11 01:43:17;;;;;;;20.15;11.85;;;4.10;99.90;;;;;;5033380;28;20034;-72
2022/03/11 01:45:44;;;;;;;18.08;11.48;;;4.10;99.90;;;;;;5084251;28;20046;-72
2022/03/11 01:48:10;;;;;;;17.98;11.15;;;4.00;99.90;;;;;;5051221;28;20045;-72
2022/03/11 01:50:41;;;;;;;16.83;11.07;;;4.00;99.90;;;;;;5034651;28;20109;-72
2022/03/11 01:53:12;;;;;;;18.35;10.90;;;3.90;99.90;;;;;;5051351;28;20129;-72
2022/03/11 01:55:38;;;;;;;17.42;10.73;;;3.90;99.90;;;;;;5084759;28;20041;-71
2022/03/11 01:58:05;;;;;;;18.48;10.73;;;4.00;99.90;;;;;;5035215;28;20061;-72
2022/03/11 02:00:35;;;;;;;17.17;10.90;;;3.90;99.90;;;;;;5044216;28;20037;-72
2022/03/11 02:03:01;;;;;;;17.58;11.40;;;3.80;99.90;;;;;;5053934;28;20041;-72
2022/03/11 02:05:28;;;;;;;18.95;11.40;;;3.80;99.90;;;;;;5067647;28;20065;-72
2022/03/11 02:07:57;;;;;;;20.95;11.57;;;3.80;99.90;;;;;;5084200;28;20134;-73
2022/03/11 02:10:23;;;;;;;18.70;11.75;;;3.80;99.90;;;;;;5050159;28;20060;-73
2022/03/11 02:12:49;;;;;;;19.45;11.60;;;3.80;99.90;;;;;;5050573;28;20045;-72
2022/03/11 02:15:14;;;;;;;23.42;12.35;;;3.80;99.90;;;;;;5034670;28;20053;-72
2022/03/11 02:17:42;;;;;;;18.80;11.55;;;3.80;99.90;;;;;;5034669;28;20125;-72
2022/03/11 02:20:08;;;;;;;17.98;11.23;;;3.80;99.90;;;;;;5084276;28;20063;-72
2022/03/11 02:22:38;;;;;;;20.08;11.88;;;3.70;99.90;;;;;;5033408;28;20037;-72
2022/03/11 02:25:08;;;;;;;20.55;11.85;;;3.70;99.90;;;;;;5034687;28;20088;-72
2022/03/11 02:27:36;;;;;;;17.42;11.13;;;3.70;99.90;;;;;;5050064;28;20042;-71
2022/03/11 02:30:13;;;;;;;18.80;12.15;;;3.70;99.90;;;;;;5084155;28;20100;-72
2022/03/11 02:32:39;;;;;;;21.58;12.65;;;3.70;99.90;;;;;;5034054;28;20101;-73
2022/03/11 02:35:07;;;;;;;21.05;12.15;;;3.70;99.90;;;;;;5050922;28;20064;-73
2022/03/11 02:37:32;;;;;;;20.40;12.25;;;3.70;99.90;;;;;;5033669;28;20041;-73
2022/03/11 02:39:58;;;;;;;21.63;13.57;;;3.70;99.90;;;;;;5051014;28;20102;-72
2022/03/11 02:42:24;;;;;;;19.23;12.55;;;3.70;99.90;;;;;;5034636;28;20048;-72
2022/03/11 02:44:49;;;;;;;21.73;12.38;;;3.70;99.90;;;;;;5050348;28;20042;-72
2022/03/11 02:47:15;;;;;;;20.48;12.80;;;3.70;99.90;;;;;;5083919;28;20049;-71
2022/03/11 02:49:41;;;;;;;21.75;12.85;;;3.70;99.90;;;;;;5083998;28;20097;-72
2022/03/11 02:52:07;;;;;;;23.77;13.73;;;3.60;99.90;;;;;;5052680;28;20068;-73
2022/03/11 02:54:34;;;;;;;22.48;13.32;;;3.60;99.90;;;;;;5051182;28;20468;-72
2022/03/11 02:56:59;;;;;;;21.67;13.90;;;3.60;99.90;;;;;;5084038;28;20043;-73
2022/03/11 02:59:25;;;;;;;24.05;13.88;;;3.60;99.90;;;;;;5084443;28;20100;-73
2022/03/11 03:01:52;;;;;;;24.48;14.07;;;3.60;99.90;;;;;;5084579;28;20044;-72
2022/03/11 03:04:18;;;;;;;21.95;14.65;;;3.60;99.90;;;;;;5066586;28;20038;-72
2022/03/11 03:06:44;;;;;;;23.50;14.02;;;3.60;99.90;;;;;;5070934;28;20077;-72
2022/03/11 03:09:09;;;;;;;23.65;13.93;;;3.50;99.90;;;;;;5062895;28;20037;-73
2022/03/11 03:11:35;;;;;;;24.17;14.80;;;3.60;99.90;;;;;;5063612;28;20038;-71
2022/03/11 03:14:02;;;;;;;20.35;13.63;;;3.50;99.90;;;;;;5070507;28;20056;-73
2022/03/11 03:16:27;;;;;;;23.40;14.57;;;3.50;99.90;;;;;;5057955;28;20068;-73
2022/03/11 03:18:53;;;;;;;21.42;14.00;;;3.50;99.90;;;;;;5070956;28;20043;-71
2022/03/11 03:21:18;;;;;;;25.38;13.93;;;3.50;99.90;;;;;;5069733;28;20033;-72
2022/03/11 03:23:44;;;;;;;25.00;14.73;;;3.50;99.90;;;;;;5069548;28;20060;-72
2022/03/11 03:26:11;;;;;;;27.60;14.93;;;3.40;99.90;;;;;;5052855;28;20067;-72
2022/03/11 03:28:37;;;;;;;23.33;14.85;;;3.40;99.90;;;;;;5069566;28;20049;-72
2022/03/11 03:31:02;;;;;;;24.60;15.38;;;3.40;99.90;;;;;;5070166;28;20052;-72
2022/03/11 03:33:28;;;;;;;23.73;14.70;;;3.40;99.90;;;;;;5069727;28;20045;-72
2022/03/11 03:35:54;;;;;;;22.65;14.68;;;3.40;99.90;;;;;;5073151;28;20041;-73
2022/03/11 03:38:20;;;;;;;23.65;14.35;;;3.40;99.90;;;;;;5073733;28;20068;-71
2022/03/11 03:40:45;;;;;;;25.77;15.68;;;3.30;99.90;;;;;;5073213;28;20037;-72
2022/03/11 03:43:11;;;;;;;24.58;15.85;;;3.30;99.90;;;;;;5073064;28;20041;-72
2022/03/11 03:45:37;;;;;;;27.80;16.83;;;3.30;99.90;;;;;;5073526;28;20041;-72
2022/03/11 03:48:03;;;;;;;25.63;16.27;;;3.30;99.90;;;;;;5074418;28;20084;-72
2022/03/11 03:50:29;;;;;;;25.90;16.98;;;3.20;99.90;;;;;;5070567;28;20060;-72
2022/03/11 03:52:55;;;;;;;26.13;15.73;;;3.20;99.90;;;;;;5072832;28;20045;-72
2022/03/11 03:55:20;;;;;;;27.30;16.30;;;3.20;99.90;;;;;;5073780;28;20041;-72
2022/03/11 03:57:46;;;;;;;28.02;17.25;;;3.20;99.90;;;;;;5073790;28;20041;-72
2022/03/11 04:00:12;;;;;;;27.73;17.20;;;3.20;99.90;;;;;;5073240;28;20041;-73
2022/03/11 04:02:45;;;;;;;25.33;15.98;;;3.20;99.90;;;;;;5056453;28;20044;-72
2022/03/11 04:05:12;;;;;;;27.88;16.52;;;3.10;99.90;;;;;;5072925;28;20079;-73
2022/03/11 04:07:42;;;;;;;33.17;18.23;;;3.10;99.90;;;;;;5072912;28;20103;-72
2022/03/11 04:10:08;;;;;;;27.95;17.65;;;3.10;99.90;;;;;;5055386;28;20463;-73
2022/03/11 04:12:34;;;;;;;29.85;17.92;;;3.10;99.90;;;;;;5055351;28;20472;-72
2022/03/11 04:15:00;;;;;;;27.88;17.58;;;3.10;99.90;;;;;;5073155;28;20076;-72
2022/03/11 04:17:25;;;;;;;29.33;18.60;;;3.10;99.90;;;;;;5055645;28;20048;-73
2022/03/11 04:19:51;;;;;;;28.70;17.67;;;3.00;99.90;;;;;;5056226;28;20491;-72
2022/03/11 04:22:17;;;;;;;31.05;18.50;;;3.00;99.90;;;;;;5055038;28;20041;-71
2022/03/11 04:24:42;;;;;;;28.23;17.95;;;3.00;99.90;;;;;;5072027;28;20047;-73
2022/03/11 04:27:09;;;;;;;27.67;18.23;;;2.90;99.90;;;;;;5072253;28;20100;-73
2022/03/11 04:29:34;;;;;;;31.70;19.00;;;2.90;99.90;;;;;;5064485;28;20061;-72
2022/03/11 04:32:00;;;;;;;31.30;18.70;;;2.90;99.90;;;;;;5085309;28;20034;-72
2022/03/11 04:34:26;;;;;;;29.00;17.95;;;2.90;99.90;;;;;;5053244;28;20125;-72
2022/03/11 04:36:52;;;;;;;28.88;17.73;;;2.90;99.90;;;;;;5035918;28;20044;-72
2022/03/11 04:39:18;;;;;;;31.55;18.85;;;2.80;99.90;;;;;;5053273;28;20402;-72
2022/03/11 04:41:44;;;;;;;33.10;19.30;;;2.80;99.90;;;;;;5034530;28;20042;-72
2022/03/11 04:44:10;;;;;;;31.70;19.08;;;2.90;99.90;;;;;;5084978;28;20124;-72
2022/03/11 04:46:36;;;;;;;33.25;19.73;;;2.90;99.90;;;;;;5064663;28;20025;-72
2022/03/11 04:49:03;;;;;;;32.55;19.70;;;2.80;99.90;;;;;;5064769;28;20076;-72
2022/03/11 04:51:29;;;;;;;32.42;19.92;;;2.80;99.90;;;;;;5031333;28;20048;-73
2022/03/11 04:53:55;;;;;;;29.75;18.90;;;2.80;99.90;;;;;;5032449;28;20042;-72
2022/03/11 04:56:21;;;;;;;32.60;18.92;;;2.80;99.90;;;;;;5047884;28;20046;-72
2022/03/11 04:58:46;;;;;;;30.83;19.45;;;2.80;99.90;;;;;;5049655;28;20046;-72
2022/03/11 05:01:12;;;;;;;33.70;19.70;;;2.80;99.90;;;;;;5051973;28;20050;-72
2022/03/11 05:03:38;;;;;;;34.28;20.17;;;2.70;99.90;;;;;;5051621;28;20041;-72
2022/03/11 05:06:05;;;;;;;31.88;20.52;;;2.70;99.90;;;;;;5034630;28;20053;-72
2022/03/11 05:08:30;;;;;;;33.42;20.27;;;2.70;99.90;;;;;;5052622;28;20045;-72
2022/03/11 05:10:57;;;;;;;32.83;20.48;;;2.70;99.90;;;;;;5050839;28;20132;-73
2022/03/11 05:13:23;;;;;;;33.90;19.65;;;2.60;99.90;;;;;;5050824;28;20041;-71
2022/03/11 05:15:48;;;;;;;37.65;21.70;;;2.60;99.90;;;;;;5050860;28;20076;-72
2022/03/11 05:18:14;;;;;;;35.60;21.00;;;2.60;99.90;;;;;;5034302;28;20041;-73
2022/03/11 05:20:40;;;;;;;38.40;21.30;;;2.60;99.90;;;;;;5084405;28;20041;-72
2022/03/11 05:23:05;;;;;;;35.88;20.95;;;2.60;99.90;;;;;;5034239;28;20037;-72
2022/03/11 05:25:31;;;;;;;33.80;21.65;;;2.60;99.90;;;;;;5034279;28;20052;-72
2022/03/11 05:27:57;;;;;;;36.08;21.40;;;2.60;99.90;;;;;;5050646;28;20468;-72
2022/03/11 05:30:22;;;;;;;38.20;22.00;;;2.60;99.90;;;;;;5083376;28;20041;-72
2022/03/11 05:32:48;;;;;;;39.15;21.42;;;2.60;99.90;;;;;;5051695;28;20045;-71
2022/03/11 05:35:15;;;;;;;35.33;21.58;;;2.50;99.90;;;;;;5034838;28;20048;-72
2022/03/11 05:37:41;;;;;;;39.53;22.10;;;2.50;99.90;;;;;;5065989;28;20063;-72
2022/03/11 05:40:08;;;;;;;36.88;21.33;;;2.50;99.90;;;;;;5056974;28;20049;-72
2022/03/11 05:42:33;;;;;;;35.90;21.45;;;2.50;99.90;;;;;;5083276;28;20041;-71
2022/03/11 05:44:59;;;;;;;37.83;21.35;;;2.40;99.90;;;;;;5051700;28;20033;-72
2022/03/11 05:47:25;;;;;;;36.03;21.42;;;2.40;99.90;;;;;;5050543;28;20033;-73
2022/03/11 05:49:51;;;;;;;36.30;21.85;;;2.40;99.90;;;;;;5051223;28;20052;-73
2022/03/11 05:52:16;;;;;;;39.40;23.23;;;2.40;99.90;;;;;;5083489;28;20037;-72
2022/03/11 05:54:42;;;;;;;36.38;21.65;;;2.30;99.90;;;;;;5083620;28;20045;-72
2022/03/11 05:57:08;;;;;;;41.63;22.30;;;2.30;99.90;;;;;;5050523;28;20418;-72
2022/03/11 05:59:34;;;;;;;37.08;22.77;;;2.30;99.90;;;;;;5033619;28;20034;-71
2022/03/11 06:02:00;;;;;;;41.33;22.77;;;2.30;99.90;;;;;;5033899;28;20041;-73
2022/03/11 06:04:26;;;;;;;38.42;22.10;;;2.30;99.90;;;;;;5083188;28;20130;-72
2022/03/11 06:06:52;;;;;;;33.83;22.33;;;2.30;99.90;;;;;;5083871;28;20496;-73
2022/03/11 06:09:18;;;;;;;40.22;22.98;;;2.30;99.90;;;;;;5083631;28;20132;-72
2022/03/11 06:11:44;;;;;;;38.75;23.17;;;2.30;99.90;;;;;;5066256;28;20109;-73
2022/03/11 06:14:09;;;;;;;36.15;22.10;;;2.30;99.90;;;;;;5050999;28;20468;-72
2022/03/11 06:16:35;;;;;;;38.10;23.38;;;2.30;99.90;;;;;;5067153;28;20124;-73
2022/03/11 06:19:01;;;;;;;40.28;22.20;;;2.20;99.90;;;;;;5050077;28;20041;-73
2022/03/11 06:21:26;;;;;;;36.58;21.75;;;2.20;99.90;;;;;;5033848;28;20096;-73
2022/03/11 06:23:52;;;;;;;39.10;22.15;;;2.20;99.90;;;;;;5049451;28;20472;-73
2022/03/11 06:26:18;;;;;;;36.65;22.42;;;2.20;99.90;;;;;;5049894;28;20111;-73
2022/03/11 06:28:44;;;;;;;38.13;22.45;;;2.20;99.90;;;;;;5050454;28;20072;-73
2022/03/11 06:31:11;;;;;;;39.00;23.42;;;2.20;99.90;;;;;;5069644;28;20103;-73
2022/03/11 06:33:37;;;;;;;38.58;22.58;;;2.20;99.90;;;;;;5070338;28;20044;-72
2022/03/11 06:36:04;;;;;;;37.63;22.90;;;2.20;99.90;;;;;;5053312;28;20086;-72
2022/03/11 06:38:30;;;;;;;41.25;23.25;;;2.20;99.90;;;;;;5069673;28;20049;-73
2022/03/11 06:40:56;;;;;;;37.55;22.52;;;2.20;99.90;;;;;;5068988;28;20051;-72
2022/03/11 06:43:22;;;;;;;37.25;22.85;;;2.30;99.90;;;;;;5070494;28;20101;-73
2022/03/11 06:45:48;;;;;;;40.80;22.98;;;2.30;99.90;;;;;;5069845;28;20098;-73
2022/03/11 06:48:14;;;;;;;36.60;21.88;;;2.30;99.90;;;;;;5053996;28;20069;-72
2022/03/11 06:50:39;;;;;;;39.30;22.88;;;2.30;99.90;;;;;;5070246;28;20045;-72
2022/03/11 06:53:05;;;;;;;37.95;22.92;;;2.40;99.90;;;;;;5070963;28;20040;-72
2022/03/11 06:55:31;;;;;;;40.55;23.02;;;2.40;99.90;;;;;;5068432;28;20076;-72
2022/03/11 06:57:56;;;;;;;40.53;22.65;;;2.40;99.90;;;;;;5069639;28;20079;-71
2022/03/11 07:00:22;;;;;;;35.05;22.80;;;2.40;99.90;;;;;;5064292;28;20069;-73
2022/03/11 07:02:48;;;;;;;39.88;22.67;;;2.50;99.90;;;;;;5050070;28;20037;-72
2022/03/11 07:05:14;;;;;;;38.28;21.88;;;2.50;99.90;;;;;;5049228;28;20053;-73
2022/03/11 07:07:39;;;;;;;37.90;22.25;;;2.60;99.90;;;;;;5031664;28;20053;-72
2022/03/11 07:10:09;;;;;;;39.10;23.08;;;2.60;99.90;;;;;;5051792;28;20034;-72
2022/03/11 07:12:35;;;;;;;38.20;22.10;;;2.70;99.90;;;;;;5067738;28;20054;-73
2022/03/11 07:15:02;;;;;;;37.55;22.27;;;2.70;99.90;;;;;;5067214;28;20048;-73
2022/03/11 07:17:28;;;;;;;38.50;22.15;;;2.80;99.90;;;;;;5067626;28;20045;-73
2022/03/11 07:19:54;;;;;;;38.83;22.45;;;2.90;99.90;;;;;;5067043;28;20050;-72
2022/03/11 07:22:20;;;;;;;38.97;22.30;;;2.90;99.90;;;;;;5065501;28;20136;-73
2022/03/11 07:24:46;;;;;;;35.33;21.67;;;3.00;99.90;;;;;;5033570;28;20042;-72
2022/03/11 07:27:12;;;;;;;34.67;21.73;;;3.10;99.90;;;;;;5049522;28;20358;-74
2022/03/11 07:29:38;;;;;;;39.13;22.30;;;3.20;99.90;;;;;;5070056;28;20048;-73
2022/03/11 07:32:05;;;;;;;39.15;21.88;;;3.20;99.90;;;;;;5072644;28;20100;-73
2022/03/11 07:34:30;;;;;;;37.05;21.50;;;3.30;99.90;;;;;;5069898;28;20072;-73
2022/03/11 07:36:56;;;;;;;36.85;22.48;;;3.40;99.90;;;;;;5073435;28;20045;-73
2022/03/11 07:39:22;;;;;;;33.58;20.85;;;3.50;99.90;;;;;;5073952;28;20044;-73
2022/03/11 07:41:49;;;;;;;36.08;22.05;;;3.60;99.90;;;;;;5074057;28;20045;-72
2022/03/11 07:44:16;;;;;;;37.10;21.10;;;3.70;99.90;;;;;;5073739;28;20047;-74
2022/03/11 07:46:42;;;;;;;38.13;21.13;;;3.90;99.90;;;;;;5074005;28;20047;-73
2022/03/11 07:49:08;;;;;;;40.75;22.45;;;4.00;99.90;;;;;;5074638;28;20032;-73
2022/03/11 07:51:34;;;;;;;39.17;20.48;;;4.10;99.90;;;;;;5073454;28;20041;-73
2022/03/11 07:54:00;;;;;;;32.78;20.30;;;4.20;99.90;;;;;;5056888;28;20048;-74
2022/03/11 07:56:29;;;;;;;36.33;20.35;;;4.30;99.90;;;;;;5073969;28;20075;-74
2022/03/11 07:58:56;;;;;;;35.97;21.52;;;4.50;99.90;;;;;;5043306;28;20373;-74
2022/03/11 08:01:25;;;;;;;34.10;20.85;;;4.60;99.90;;;;;;5053150;28;20045;-75
2022/03/11 08:03:50;;;;;;;36.10;19.67;;;4.80;99.90;;;;;;5038198;28;20030;-74
2022/03/11 08:06:16;;;;;;;33.60;19.83;;;4.90;99.90;;;;;;5054519;28;20308;-75
2022/03/11 08:08:43;;;;;;;36.00;21.25;;;5.00;99.90;;;;;;5054558;28;20041;-74
2022/03/11 08:11:09;;;;;;;35.47;20.88;;;5.10;99.90;;;;;;5050362;28;20045;-74
2022/03/11 08:13:35;;;;;;;33.92;20.88;;;5.30;99.90;;;;;;5071465;28;20057;-74
2022/03/11 08:16:01;;;;;;;36.10;20.02;;;5.40;99.90;;;;;;5052748;28;20037;-75
2022/03/11 08:18:27;;;;;;;35.47;20.23;;;5.60;99.90;;;;;;5052658;28;20076;-75
2022/03/11 08:20:55;;;;;;;35.55;20.00;;;5.70;99.90;;;;;;5035124;28;20045;-73
2022/03/11 08:23:21;;;;;;;34.58;21.48;;;5.90;99.90;;;;;;5064485;28;20044;-75
2022/03/11 08:25:48;;;;;;;36.30;20.15;;;6.10;99.90;;;;;;5036789;28;20041;-75
2022/03/11 08:28:13;;;;;;;36.38;21.00;;;6.20;99.90;;;;;;5040949;28;20040;-75
2022/03/11 08:30:41;;;;;;;32.15;19.20;;;6.40;99.90;;;;;;5073270;28;20041;-74
2022/03/11 08:33:07;;;;;;;35.13;20.75;;;6.50;99.90;;;;;;5074218;28;20040;-73
2022/03/11 08:35:34;;;;;;;32.53;19.88;;;6.70;99.90;;;;;;5038560;28;20041;-74
2022/03/11 08:38:03;;;;;;;32.78;20.08;;;6.90;99.90;;;;;;5056671;28;20045;-75
2022/03/11 08:40:48;;;;;;;34.60;20.27;;;7.00;99.90;;;;;;5056765;28;20051;-84
2022/03/11 08:43:14;;;;;;;33.47;20.77;;;7.20;99.90;;;;;;5071238;28;20333;-73
2022/03/11 08:45:40;;;;;;;34.90;19.65;;;7.30;98.60;;;;;;5052302;28;20049;-75
2022/03/11 08:48:06;;;;;;;33.42;19.75;;;7.40;98.10;;;;;;5054583;28;20049;-75
2022/03/11 08:50:33;;;;;;;36.88;20.42;;;7.60;96.10;;;;;;5055574;28;20033;-75
2022/03/11 08:53:01;;;;;;;32.08;19.63;;;7.60;93.80;;;;;;5048439;28;20041;-76
2022/03/11 08:55:27;;;;;;;32.25;18.90;;;7.70;93.00;;;;;;5053821;28;20033;-76
2022/03/11 08:57:52;;;;;;;31.73;19.75;;;7.80;91.90;;;;;;5056455;28;20043;-74
2022/03/11 09:00:21;;;;;;;33.10;20.50;;;7.80;90.50;;;;;;5055328;28;20069;-74
2022/03/11 09:02:47;;;;;;;33.65;20.17;;;7.90;87.00;;;;;;5036474;28;20037;-73
2022/03/11 09:05:18;;;;;;;33.05;20.33;;;8.00;89.30;;;;;;5036750;28;20129;-75
2022/03/11 09:07:45;;;;;;;32.40;20.27;;;8.20;84.90;;;;;;5049746;28;20039;-74
2022/03/11 09:10:12;;;;;;;31.05;19.65;;;8.20;85.60;;;;;;5067129;28;20045;-74
2022/03/11 09:12:39;;;;;;;37.75;20.15;;;8.40;84.50;;;;;;5041072;28;20527;-74
2022/03/11 09:15:06;;;;;;;33.22;19.17;;;8.40;82.20;;;;;;5053693;28;20096;-75
2022/03/11 09:17:32;;;;;;;31.85;20.08;;;8.50;82.10;;;;;;5055048;28;20025;-75
2022/03/11 09:20:02;;;;;;;31.42;19.00;;;8.50;79.80;;;;;;5063463;28;20083;-75
2022/03/11 09:22:32;;;;;;;32.97;19.30;;;8.60;79.20;;;;;;5073298;28;20045;-75
2022/03/11 09:24:58;;;;;;;32.88;19.50;;;8.60;79.20;;;;;;5045337;28;20089;-74
2022/03/11 09:27:24;;;;;;;31.95;20.20;;;8.70;78.60;;;;;;5069902;28;20048;-75
2022/03/11 09:29:50;;;;;;;33.25;19.92;;;8.80;77.90;;;;;;5063156;28;20025;-74
2022/03/11 09:32:16;;;;;;;30.98;19.70;;;8.90;76.90;;;;;;5066702;28;20029;-74
2022/03/11 09:34:43;;;;;;;31.70;20.15;;;8.90;76.80;;;;;;5063129;28;20051;-73
2022/03/11 09:37:10;;;;;;;30.20;18.45;;;9.00;76.40;;;;;;5037182;28;20041;-75
2022/03/11 09:39:36;;;;;;;29.40;19.08;;;9.20;75.80;;;;;;5063101;28;20055;-73
2022/03/11 09:42:03;;;;;;;30.52;19.23;;;9.20;75.10;;;;;;5081342;28;20101;-73
2022/03/11 09:44:29;;;;;;;33.72;19.50;;;9.30;73.80;;;;;;5043224;28;20053;-76
2022/03/11 09:46:55;;;;;;;32.17;19.63;;;9.40;73.20;;;;;;5070064;28;20029;-75
2022/03/11 09:49:21;;;;;;;34.03;19.30;;;9.40;72.70;;;;;;5059004;28;20029;-74
2022/03/11 09:51:47;;;;;;;32.58;19.10;;;9.50;72.30;;;;;;5053674;28;20037;-75
2022/03/11 09:54:14;;;;;;;34.70;18.42;;;9.50;71.90;;;;;;5066517;28;20033;-74
2022/03/11 09:56:41;;;;;;;28.67;18.98;;;9.50;71.40;;;;;;5062094;28;20029;-75
2022/03/11 09:59:08;;;;;;;30.30;18.02;;;9.60;71.20;;;;;;5055976;28;20041;-73
2022/03/11 10:01:35;;;;;;;32.53;19.65;;;9.60;71.20;;;;;;5067734;28;20029;-75
2022/03/11 10:04:05;;;;;;;30.15;19.27;;;9.70;70.40;;;;;;5066950;28;20060;-75
2022/03/11 10:06:38;;;;;;;31.05;18.63;;;9.80;70.00;;;;;;5073117;28;20044;-76
2022/03/11 10:09:04;;;;;;;32.65;20.85;;;10.00;69.40;;;;;;5056461;28;20033;-74
2022/03/11 10:11:30;;;;;;;30.92;19.15;;;10.10;70.30;;;;;;5073457;28;20040;-75
2022/03/11 10:14:07;;;;;;;32.13;19.27;;;10.20;69.50;;;;;;5069160;28;20092;-72
2022/03/11 10:16:34;;;;;;;31.80;19.17;;;10.30;68.20;;;;;;5054245;28;20399;-76
2022/03/11 10:19:06;;;;;;;133.23;28.58;;;10.30;68.50;;;;;;5034888;28;20102;-78
2022/03/11 10:21:42;;;;;;;38.13;20.58;;;10.30;67.90;;;;;;5047328;28;20040;-75
2022/03/11 10:24:14;;;;;;;28.67;18.50;;;10.40;67.50;;;;;;5054842;28;20040;-78
2022/03/11 10:26:41;;;;;;;28.30;17.52;;;10.30;67.30;;;;;;5053926;28;20044;-81
2022/03/11 10:29:13;;;;;;;28.95;18.48;;;10.40;67.30;;;;;;5069375;28;20037;-75
2022/03/11 10:31:45;;;;;;;30.52;19.00;;;10.50;66.60;;;;;;5051664;28;20033;-75
2022/03/11 10:34:26;;;;;;;28.88;18.35;;;10.60;67.20;;;;;;5074276;28;20049;-73
2022/03/11 10:36:59;;;;;;;29.45;18.55;;;10.80;66.90;;;;;;5078633;28;20095;-76
2022/03/11 10:39:45;;;;;;;33.60;18.63;;;10.90;66.30;;;;;;5072077;28;20042;-72
2022/03/11 10:42:19;;;;;;;29.73;17.40;;;11.00;66.30;;;;;;5055586;28;20102;-73
2022/03/11 10:44:58;;;;;;;26.58;17.15;;;11.10;64.60;;;;;;5078775;28;20071;-72
2022/03/11 10:47:36;;;;;;;28.63;16.37;;;11.10;61.90;;;;;;5038898;28;20022;-75
2022/03/11 10:50:07;;;;;;;25.40;15.90;;;11.10;62.20;;;;;;5023390;28;20336;-75
2022/03/11 10:53:06;;;;;;;24.40;16.42;;;11.10;61.70;;;;;;5055911;28;20037;-74
2022/03/11 10:55:33;;;;;;;25.85;16.92;;;11.10;59.30;;;;;;5031016;28;20113;-74
2022/03/11 10:58:06;;;;;;;28.42;17.25;;;11.20;61.30;;;;;;5055641;28;20026;-74
2022/03/11 11:00:34;;;;;;;26.65;16.20;;;11.30;60.90;;;;;;5056535;28;20049;-74
2022/03/11 11:03:05;;;;;;;26.05;16.45;;;11.40;61.10;;;;;;5055275;28;20089;-74
2022/03/11 11:05:32;;;;;;;24.95;16.40;;;11.40;59.80;;;;;;5088629;28;20105;-73
2022/03/11 11:07:59;;;;;;;28.17;17.08;;;11.40;59.70;;;;;;5055195;28;20040;-74
2022/03/11 11:10:26;;;;;;;26.02;16.92;;;11.40;59.00;;;;;;5055528;28;20033;-73
2022/03/11 11:12:55;;;;;;;26.83;17.02;;;11.60;59.20;;;;;;5056134;28;20093;-73
2022/03/11 11:15:21;;;;;;;25.57;16.57;;;11.70;59.00;;;;;;5019221;28;20057;-75
2022/03/11 11:17:52;;;;;;;27.60;16.80;;;11.70;57.80;;;;;;5019897;28;20038;-75
2022/03/11 11:20:45;;;;;;;27.70;16.73;;;11.70;57.60;;;;;;5035914;28;20082;-74
2022/03/11 11:23:12;;;;;;;25.65;16.35;;;11.70;57.60;;;;;;5032921;28;20045;-75
2022/03/11 11:25:40;;;;;;;28.27;16.83;;;11.70;57.40;;;;;;5053385;28;20037;-74
2022/03/11 11:28:10;;;;;;;27.00;16.02;;;11.70;57.30;;;;;;5056650;28;20034;-74
2022/03/11 11:30:37;;;;;;;27.20;16.67;;;11.90;57.30;;;;;;5039482;28;20029;-74
2022/03/11 11:33:03;;;;;;;25.50;17.10;;;12.10;57.10;;;;;;5046506;28;20048;-74
2022/03/11 11:35:32;;;;;;;24.92;16.65;;;12.20;57.00;;;;;;5054865;28;20046;-73
2022/03/11 11:38:03;;;;;;;24.40;16.20;;;12.40;57.00;;;;;;5054925;28;20048;-74
2022/03/11 11:40:36;;;;;;;23.83;16.13;;;12.50;56.10;;;;;;5022059;28;20037;-74
2022/03/11 11:43:11;;;;;;;30.42;17.33;;;12.60;55.70;;;;;;5038767;28;20029;-73
2022/03/11 11:45:51;;;;;;;25.42;16.27;;;12.80;55.90;;;;;;5021849;28;20059;-74
2022/03/11 11:48:41;;;;;;;;;;;12.90;54.80;;;;;;5013770;28;20110;-75
2022/03/11 11:51:09;;;;;;;26.45;16.02;;;12.90;53.50;;;;;;5038831;28;19912;-75
2022/03/11 11:53:43;;;;;;;23.70;16.10;;;13.00;55.50;;;;;;5022352;28;20022;-73
2022/03/11 11:56:32;;;;;;;28.38;16.20;;;13.10;54.70;;;;;;5057714;28;20097;-75
2022/03/11 11:59:02;;;;;;;26.23;15.88;;;13.10;53.30;;;;;;5008311;28;20121;-74
2022/03/11 12:01:48;;;;;;;26.58;16.42;;;13.10;54.20;;;;;;5024957;28;20575;-74
2022/03/11 12:04:21;;;;;;;26.38;17.40;;;13.20;54.00;;;;;;5015478;28;20072;-74
2022/03/11 12:06:56;;;;;;;26.67;15.55;;;13.30;54.80;;;;;;5051689;28;20038;-75
2022/03/11 12:09:40;;;;;;;26.17;15.60;;;13.50;54.60;;;;;;5059468;28;20083;-75
2022/03/11 12:12:32;;;;;;;24.83;15.68;;;13.60;53.20;;;;;;5079542;28;20045;-75
2022/03/11 12:15:04;;;;;;;24.38;15.45;;;13.70;53.20;;;;;;5066145;28;20026;-75
2022/03/11 12:17:42;;;;;;;23.23;15.50;;;13.70;53.10;;;;;;5045795;28;20043;-74
2022/03/11 12:20:45;;;;;;;25.13;16.05;;;13.60;52.90;;;;;;5078620;28;20033;-75
2022/03/11 12:23:14;;;;;;;24.98;15.95;;;13.60;51.50;;;;;;5061973;28;20067;-74
2022/03/11 12:25:57;;;;;;;23.23;15.65;;;13.70;52.70;;;;;;5043595;28;20034;-75
2022/03/11 12:28:39;;;;;;;22.48;15.75;;;13.80;52.40;;;;;;5058526;28;20049;-74
2022/03/11 12:31:24;;;;;;;25.15;15.65;;;13.70;51.50;;;;;;5042268;28;20056;-76
2022/03/11 12:33:54;;;;;;;23.17;15.05;;;13.70;52.30;;;;;;5042631;28;20031;-74
2022/03/11 12:36:27;;;;;;;27.17;14.80;;;13.80;52.90;;;;;;5058467;28;20044;-75
2022/03/11 12:38:53;;;;;;;26.05;14.50;;;13.90;52.60;;;;;;5053933;28;20029;-75